sensor_id;sensor_type;location;lat;lon;timestamp;pressure;altitude;pressure_sealevel;temperature
47484;BMP280;54076;50.322;18.650;2023-01-23T00:00:50;100507.27;;;3.52
47484;BMP280;54076;50.322;18.650;2023-01-23T00:06:04;100512.24;;;3.45
47484;BMP280;54076;50.322;18.650;2023-01-23T00:11:09;100525.77;;;3.59
47484;BMP280;54076;50.322;18.650;2023-01-23T00:16:18;100526.63;;;3.40
47484;BMP280;54076;50.322;18.650;2023-01-23T00:21:25;100527.48;;;3.41
47484;BMP280;54076;50.322;18.650;2023-01-23T00:26:28;100521.79;;;3.45
47484;BMP280;54076;50.322;18.650;2023-01-23T00:31:33;100524.89;;;3.48
47484;BMP280;54076;50.322;18.650;2023-01-23T00:36:38;100540.48;;;3.60
47484;BMP280;54076;50.322;18.650;2023-01-23T00:41:39;100550.64;;;3.61
47484;BMP280;54076;50.322;18.650;2023-01-23T00:46:41;100550.02;;;3.66
47484;BMP280;54076;50.322;18.650;2023-01-23T00:51:43;100556.11;;;3.42
47484;BMP280;54076;50.322;18.650;2023-01-23T00:56:44;100567.42;;;3.41
47484;BMP280;54076;50.322;18.650;2023-01-23T01:01:46;100559.95;;;3.50
47484;BMP280;54076;50.322;18.650;2023-01-23T01:06:47;100561.35;;;3.44
47484;BMP280;54076;50.322;18.650;2023-01-23T01:11:48;100570.58;;;3.37
47484;BMP280;54076;50.322;18.650;2023-01-23T01:16:49;100572.23;;;3.47
47484;BMP280;54076;50.322;18.650;2023-01-23T01:21:50;100572.75;;;3.58
47484;BMP280;54076;50.322;18.650;2023-01-23T01:26:51;100563.98;;;3.48
47484;BMP280;54076;50.322;18.650;2023-01-23T01:31:53;100563.98;;;3.33
47484;BMP280;54076;50.322;18.650;2023-01-23T01:36:54;100569.60;;;3.42
47484;BMP280;54076;50.322;18.650;2023-01-23T01:41:55;100562.13;;;3.33
47484;BMP280;54076;50.322;18.650;2023-01-23T01:46:56;100581.73;;;3.39
47484;BMP280;54076;50.322;18.650;2023-01-23T01:52:07;100589.11;;;3.52
47484;BMP280;54076;50.322;18.650;2023-01-23T01:57:32;100588.41;;;3.39
47484;BMP280;54076;50.322;18.650;2023-01-23T02:02:42;100584.55;;;3.34
47484;BMP280;54076;50.322;18.650;2023-01-23T02:07:55;100582.13;;;3.39
47484;BMP280;54076;50.322;18.650;2023-01-23T02:13:26;100583.47;;;3.51
47484;BMP280;54076;50.322;18.650;2023-01-23T02:18:31;100587.38;;;3.66
47484;BMP280;54076;50.322;18.650;2023-01-23T02:29:07;100578.07;;;3.68
47484;BMP280;54076;50.322;18.650;2023-01-23T02:34:11;100582.25;;;3.45
47484;BMP280;54076;50.322;18.650;2023-01-23T02:39:18;100582.24;;;3.36
47484;BMP280;54076;50.322;18.650;2023-01-23T02:44:30;100589.08;;;3.48
47484;BMP280;54076;50.322;18.650;2023-01-23T02:49:32;100589.89;;;3.49
47484;BMP280;54076;50.322;18.650;2023-01-23T02:54:34;100596.16;;;3.36
47484;BMP280;54076;50.322;18.650;2023-01-23T02:59:35;100602.48;;;3.34
47484;BMP280;54076;50.322;18.650;2023-01-23T03:04:55;100603.91;;;3.53
47484;BMP280;54076;50.322;18.650;2023-01-23T03:09:56;100606.21;;;3.54
47484;BMP280;54076;50.322;18.650;2023-01-23T03:14:57;100608.77;;;3.64
47484;BMP280;54076;50.322;18.650;2023-01-23T03:19:58;100607.83;;;3.44
47484;BMP280;54076;50.322;18.650;2023-01-23T03:25:00;100610.14;;;3.27
47484;BMP280;54076;50.322;18.650;2023-01-23T03:30:01;100608.40;;;3.37
47484;BMP280;54076;50.322;18.650;2023-01-23T03:35:17;100598.41;;;3.26
47484;BMP280;54076;50.322;18.650;2023-01-23T03:40:23;100608.23;;;3.23
47484;BMP280;54076;50.322;18.650;2023-01-23T03:45:43;100612.73;;;3.30
47484;BMP280;54076;50.322;18.650;2023-01-23T03:50:44;100612.64;;;3.44
47484;BMP280;54076;50.322;18.650;2023-01-23T03:55:46;100617.34;;;3.35
47484;BMP280;54076;50.322;18.650;2023-01-23T04:00:48;100626.50;;;3.52
47484;BMP280;54076;50.322;18.650;2023-01-23T04:05:54;100616.38;;;3.35
47484;BMP280;54076;50.322;18.650;2023-01-23T04:11:07;100616.70;;;3.22
47484;BMP280;54076;50.322;18.650;2023-01-23T04:16:08;100609.65;;;3.36
47484;BMP280;54076;50.322;18.650;2023-01-23T04:21:10;100607.48;;;3.52
47484;BMP280;54076;50.322;18.650;2023-01-23T04:26:12;100615.17;;;3.35
47484;BMP280;54076;50.322;18.650;2023-01-23T04:31:13;100620.98;;;3.19
47484;BMP280;54076;50.322;18.650;2023-01-23T04:36:14;100624.77;;;3.26
47484;BMP280;54076;50.322;18.650;2023-01-23T04:41:24;100634.92;;;3.21
47484;BMP280;54076;50.322;18.650;2023-01-23T04:46:25;100635.71;;;3.25
47484;BMP280;54076;50.322;18.650;2023-01-23T04:51:26;100639.83;;;3.35
47484;BMP280;54076;50.322;18.650;2023-01-23T04:56:27;100649.52;;;3.46
47484;BMP280;54076;50.322;18.650;2023-01-23T05:01:28;100664.84;;;3.37
47484;BMP280;54076;50.322;18.650;2023-01-23T05:06:30;100661.60;;;3.47
47484;BMP280;54076;50.322;18.650;2023-01-23T05:11:31;100663.59;;;3.41
47484;BMP280;54076;50.322;18.650;2023-01-23T05:16:32;100672.52;;;3.48
47484;BMP280;54076;50.322;18.650;2023-01-23T05:21:34;100668.85;;;3.34
47484;BMP280;54076;50.322;18.650;2023-01-23T05:26:35;100663.30;;;3.26
47484;BMP280;54076;50.322;18.650;2023-01-23T05:31:36;100661.34;;;3.35
47484;BMP280;54076;50.322;18.650;2023-01-23T05:36:38;100667.80;;;3.37
47484;BMP280;54076;50.322;18.650;2023-01-23T05:41:39;100675.10;;;3.51
47484;BMP280;54076;50.322;18.650;2023-01-23T05:46:41;100669.08;;;3.24
47484;BMP280;54076;50.322;18.650;2023-01-23T05:51:42;100669.21;;;3.18
47484;BMP280;54076;50.322;18.650;2023-01-23T05:56:43;100677.72;;;3.33
47484;BMP280;54076;50.322;18.650;2023-01-23T06:01:44;100679.75;;;3.02
47484;BMP280;54076;50.322;18.650;2023-01-23T06:06:45;100690.23;;;3.11
47484;BMP280;54076;50.322;18.650;2023-01-23T06:11:46;100701.88;;;3.34
47484;BMP280;54076;50.322;18.650;2023-01-23T06:16:47;100700.60;;;3.24
47484;BMP280;54076;50.322;18.650;2023-01-23T06:21:49;100705.95;;;3.36
47484;BMP280;54076;50.322;18.650;2023-01-23T06:26:50;100719.91;;;3.52
47484;BMP280;54076;50.322;18.650;2023-01-23T06:31:51;100727.89;;;3.46
47484;BMP280;54076;50.322;18.650;2023-01-23T06:36:52;100752.86;;;3.36
47484;BMP280;54076;50.322;18.650;2023-01-23T06:41:53;100765.45;;;3.45
47484;BMP280;54076;50.322;18.650;2023-01-23T06:46:55;100772.11;;;3.46
47484;BMP280;54076;50.322;18.650;2023-01-23T06:51:56;100777.27;;;3.33
47484;BMP280;54076;50.322;18.650;2023-01-23T06:56:57;100777.89;;;3.46
47484;BMP280;54076;50.322;18.650;2023-01-23T07:01:58;100774.72;;;3.49
47484;BMP280;54076;50.322;18.650;2023-01-23T07:06:59;100781.38;;;3.47
47484;BMP280;54076;50.322;18.650;2023-01-23T07:12:00;100784.61;;;3.36
47484;BMP280;54076;50.322;18.650;2023-01-23T07:17:01;100783.61;;;3.55
47484;BMP280;54076;50.322;18.650;2023-01-23T07:22:03;100786.92;;;3.46
47484;BMP280;54076;50.322;18.650;2023-01-23T07:27:04;100792.36;;;3.64
47484;BMP280;54076;50.322;18.650;2023-01-23T07:32:05;100790.59;;;3.52
47484;BMP280;54076;50.322;18.650;2023-01-23T07:37:06;100793.05;;;3.53
47484;BMP280;54076;50.322;18.650;2023-01-23T07:42:07;100799.39;;;3.61
47484;BMP280;54076;50.322;18.650;2023-01-23T07:47:10;100792.50;;;3.58
47484;BMP280;54076;50.322;18.650;2023-01-23T07:52:11;100786.46;;;3.62
47484;BMP280;54076;50.322;18.650;2023-01-23T07:57:12;100790.75;;;3.89
47484;BMP280;54076;50.322;18.650;2023-01-23T08:02:13;100792.81;;;3.48
47484;BMP280;54076;50.322;18.650;2023-01-23T08:07:14;100801.64;;;3.65
47484;BMP280;54076;50.322;18.650;2023-01-23T08:12:15;100798.77;;;3.80
47484;BMP280;54076;50.322;18.650;2023-01-23T08:17:16;100801.46;;;3.75
47484;BMP280;54076;50.322;18.650;2023-01-23T08:22:18;100802.57;;;3.74
47484;BMP280;54076;50.322;18.650;2023-01-23T08:27:19;100806.92;;;3.73
47484;BMP280;54076;50.322;18.650;2023-01-23T08:32:20;100802.97;;;3.93
47484;BMP280;54076;50.322;18.650;2023-01-23T08:37:21;100803.66;;;3.85
47484;BMP280;54076;50.322;18.650;2023-01-23T08:42:22;100809.41;;;3.99
47484;BMP280;54076;50.322;18.650;2023-01-23T08:47:23;100810.15;;;3.92
47484;BMP280;54076;50.322;18.650;2023-01-23T08:52:24;100815.14;;;4.19
47484;BMP280;54076;50.322;18.650;2023-01-23T08:57:26;100824.83;;;4.34
47484;BMP280;54076;50.322;18.650;2023-01-23T09:02:27;100829.61;;;3.68
47484;BMP280;54076;50.322;18.650;2023-01-23T09:07:28;100827.98;;;4.04
47484;BMP280;54076;50.322;18.650;2023-01-23T09:12:30;100822.13;;;4.17
47484;BMP280;54076;50.322;18.650;2023-01-23T09:17:32;100831.15;;;4.22
47484;BMP280;54076;50.322;18.650;2023-01-23T09:22:33;100830.91;;;4.10
47484;BMP280;54076;50.322;18.650;2023-01-23T09:27:34;100828.31;;;4.32
47484;BMP280;54076;50.322;18.650;2023-01-23T09:32:35;100828.41;;;4.02
47484;BMP280;54076;50.322;18.650;2023-01-23T09:37:37;100828.19;;;4.19
47484;BMP280;54076;50.322;18.650;2023-01-23T09:43:03;100826.58;;;4.31
47484;BMP280;54076;50.322;18.650;2023-01-23T09:53:40;100826.11;;;4.07
47484;BMP280;54076;50.322;18.650;2023-01-23T09:59:37;100824.05;;;3.87
47484;BMP280;54076;50.322;18.650;2023-01-23T10:04:39;100812.02;;;4.26
47484;BMP280;54076;50.322;18.650;2023-01-23T10:09:46;100810.09;;;4.34
47484;BMP280;54076;50.322;18.650;2023-01-23T10:15:19;100806.20;;;4.49
47484;BMP280;54076;50.322;18.650;2023-01-23T10:25:52;100806.41;;;4.65
47484;BMP280;54076;50.322;18.650;2023-01-23T10:31:07;100804.06;;;4.85
47484;BMP280;54076;50.322;18.650;2023-01-23T10:36:29;100806.12;;;4.69
47484;BMP280;54076;50.322;18.650;2023-01-23T10:41:32;100805.29;;;4.78
47484;BMP280;54076;50.322;18.650;2023-01-23T10:46:55;100805.67;;;4.73
47484;BMP280;54076;50.322;18.650;2023-01-23T10:51:57;100794.53;;;4.79
47484;BMP280;54076;50.322;18.650;2023-01-23T10:57:21;100799.46;;;4.84
47484;BMP280;54076;50.322;18.650;2023-01-23T11:02:35;100797.83;;;4.47
47484;BMP280;54076;50.322;18.650;2023-01-23T11:07:37;100792.86;;;4.50
47484;BMP280;54076;50.322;18.650;2023-01-23T11:12:53;100789.90;;;4.52
47484;BMP280;54076;50.322;18.650;2023-01-23T11:17:57;100785.95;;;4.62
47484;BMP280;54076;50.322;18.650;2023-01-23T11:28:31;100783.48;;;4.84
47484;BMP280;54076;50.322;18.650;2023-01-23T11:38:57;100782.01;;;4.68
47484;BMP280;54076;50.322;18.650;2023-01-23T11:44:06;100778.71;;;4.53
47484;BMP280;54076;50.322;18.650;2023-01-23T12:00:01;100772.55;;;4.66
47484;BMP280;54076;50.322;18.650;2023-01-23T12:11:32;100767.50;;;4.69
47484;BMP280;54076;50.322;18.650;2023-01-23T12:27:20;100762.63;;;4.84
47484;BMP280;54076;50.322;18.650;2023-01-23T12:38:36;100746.59;;;4.78
47484;BMP280;54076;50.322;18.650;2023-01-23T12:44:13;100742.34;;;4.63
47484;BMP280;54076;50.322;18.650;2023-01-23T13:00:02;100743.88;;;4.79
47484;BMP280;54076;50.322;18.650;2023-01-23T13:06:07;100748.17;;;4.71
47484;BMP280;54076;50.322;18.650;2023-01-23T13:16:32;100740.25;;;4.53
47484;BMP280;54076;50.322;18.650;2023-01-23T13:27:56;100746.07;;;4.75
47484;BMP280;54076;50.322;18.650;2023-01-23T13:38:33;100744.98;;;4.77
47484;BMP280;54076;50.322;18.650;2023-01-23T13:54:48;100754.42;;;4.80
47484;BMP280;54076;50.322;18.650;2023-01-23T14:00:35;100757.15;;;4.73
47484;BMP280;54076;50.322;18.650;2023-01-23T14:05:38;100757.19;;;4.49
47484;BMP280;54076;50.322;18.650;2023-01-23T14:10:46;100761.94;;;4.66
47484;BMP280;54076;50.322;18.650;2023-01-23T14:15:53;100760.75;;;4.67
47484;BMP280;54076;50.322;18.650;2023-01-23T14:21:25;100762.15;;;4.46
47484;BMP280;54076;50.322;18.650;2023-01-23T14:26:32;100767.59;;;4.60
47484;BMP280;54076;50.322;18.650;2023-01-23T14:31:36;100772.73;;;4.67
47484;BMP280;54076;50.322;18.650;2023-01-23T14:36:37;100780.27;;;4.61
47484;BMP280;54076;50.322;18.650;2023-01-23T14:41:39;100781.39;;;4.66
47484;BMP280;54076;50.322;18.650;2023-01-23T14:46:41;100786.95;;;4.37
47484;BMP280;54076;50.322;18.650;2023-01-23T14:52:04;100779.32;;;4.25
47484;BMP280;54076;50.322;18.650;2023-01-23T14:57:06;100780.58;;;4.27
47484;BMP280;54076;50.322;18.650;2023-01-23T15:02:34;100768.02;;;4.00
47484;BMP280;54076;50.322;18.650;2023-01-23T15:08:02;100764.50;;;4.09
47484;BMP280;54076;50.322;18.650;2023-01-23T15:13:08;100758.94;;;4.10
47484;BMP280;54076;50.322;18.650;2023-01-23T15:18:32;100767.92;;;4.05
47484;BMP280;54076;50.322;18.650;2023-01-23T15:23:35;100776.20;;;4.18
47484;BMP280;54076;50.322;18.650;2023-01-23T15:28:51;100781.81;;;4.12
47484;BMP280;54076;50.322;18.650;2023-01-23T15:33:55;100777.57;;;4.08
47484;BMP280;54076;50.322;18.650;2023-01-23T15:38:57;100774.55;;;4.02
47484;BMP280;54076;50.322;18.650;2023-01-23T15:43:59;100776.22;;;3.78
47484;BMP280;54076;50.322;18.650;2023-01-23T15:49:00;100774.55;;;3.99
47484;BMP280;54076;50.322;18.650;2023-01-23T15:54:03;100777.14;;;3.79
47484;BMP280;54076;50.322;18.650;2023-01-23T15:59:13;100777.89;;;3.79
47484;BMP280;54076;50.322;18.650;2023-01-23T16:04:15;100777.30;;;3.65
47484;BMP280;54076;50.322;18.650;2023-01-23T16:09:29;100781.27;;;3.80
47484;BMP280;54076;50.322;18.650;2023-01-23T16:14:31;100779.33;;;3.81
47484;BMP280;54076;50.322;18.650;2023-01-23T16:19:32;100785.49;;;3.99
47484;BMP280;54076;50.322;18.650;2023-01-23T16:24:36;100785.79;;;4.18
47484;BMP280;54076;50.322;18.650;2023-01-23T16:29:39;100790.34;;;4.10
47484;BMP280;54076;50.322;18.650;2023-01-23T16:34:40;100797.12;;;4.19
47484;BMP280;54076;50.322;18.650;2023-01-23T16:39:43;100804.80;;;4.04
47484;BMP280;54076;50.322;18.650;2023-01-23T16:44:45;100810.33;;;4.23
47484;BMP280;54076;50.322;18.650;2023-01-23T16:49:46;100816.50;;;4.19
47484;BMP280;54076;50.322;18.650;2023-01-23T16:54:50;100818.16;;;4.25
47484;BMP280;54076;50.322;18.650;2023-01-23T16:59:52;100819.10;;;4.10
47484;BMP280;54076;50.322;18.650;2023-01-23T17:04:56;100819.78;;;4.17
47484;BMP280;54076;50.322;18.650;2023-01-23T17:09:57;100823.04;;;4.19
47484;BMP280;54076;50.322;18.650;2023-01-23T17:14:58;100824.10;;;4.20
47484;BMP280;54076;50.322;18.650;2023-01-23T17:20:00;100822.17;;;4.01
47484;BMP280;54076;50.322;18.650;2023-01-23T17:25:25;100822.77;;;4.27
47484;BMP280;54076;50.322;18.650;2023-01-23T17:30:26;100825.32;;;4.07
47484;BMP280;54076;50.322;18.650;2023-01-23T17:35:35;100832.05;;;4.13
47484;BMP280;54076;50.322;18.650;2023-01-23T17:40:36;100839.95;;;4.27
47484;BMP280;54076;50.322;18.650;2023-01-23T17:45:39;100837.98;;;3.91
47484;BMP280;54076;50.322;18.650;2023-01-23T17:50:45;100839.00;;;3.85
47484;BMP280;54076;50.322;18.650;2023-01-23T17:55:46;100843.46;;;4.07
47484;BMP280;54076;50.322;18.650;2023-01-23T18:00:51;100844.23;;;4.01
47484;BMP280;54076;50.322;18.650;2023-01-23T18:05:53;100850.29;;;3.91
47484;BMP280;54076;50.322;18.650;2023-01-23T18:10:54;100848.46;;;3.97
47484;BMP280;54076;50.322;18.650;2023-01-23T18:16:29;100847.09;;;3.90
47484;BMP280;54076;50.322;18.650;2023-01-23T18:21:32;100850.40;;;3.90
47484;BMP280;54076;50.322;18.650;2023-01-23T18:26:44;100849.11;;;3.81
47484;BMP280;54076;50.322;18.650;2023-01-23T18:37:43;100850.62;;;3.76
47484;BMP280;54076;50.322;18.650;2023-01-23T18:48:16;100846.80;;;3.63
47484;BMP280;54076;50.322;18.650;2023-01-23T18:54:08;100848.36;;;3.79
47484;BMP280;54076;50.322;18.650;2023-01-23T18:59:39;100844.63;;;3.62
47484;BMP280;54076;50.322;18.650;2023-01-23T19:10:23;100854.44;;;3.73
47484;BMP280;54076;50.322;18.650;2023-01-23T19:21:15;100855.51;;;3.76
47484;BMP280;54076;50.322;18.650;2023-01-23T19:26:18;100856.97;;;3.67
47484;BMP280;54076;50.322;18.650;2023-01-23T19:31:27;100856.43;;;3.50
47484;BMP280;54076;50.322;18.650;2023-01-23T19:36:31;100862.72;;;3.97
47484;BMP280;54076;50.322;18.650;2023-01-23T19:41:39;100866.20;;;3.94
47484;BMP280;54076;50.322;18.650;2023-01-23T19:46:41;100861.11;;;3.70
47484;BMP280;54076;50.322;18.650;2023-01-23T19:51:43;100864.77;;;3.56
47484;BMP280;54076;50.322;18.650;2023-01-23T19:56:44;100866.33;;;3.87
47484;BMP280;54076;50.322;18.650;2023-01-23T20:01:49;100863.54;;;3.77
47484;BMP280;54076;50.322;18.650;2023-01-23T20:06:50;100866.42;;;3.95
47484;BMP280;54076;50.322;18.650;2023-01-23T20:11:52;100865.10;;;3.91
47484;BMP280;54076;50.322;18.650;2023-01-23T20:16:53;100870.16;;;4.06
47484;BMP280;54076;50.322;18.650;2023-01-23T20:21:54;100868.70;;;3.73
47484;BMP280;54076;50.322;18.650;2023-01-23T20:26:55;100870.08;;;3.76
47484;BMP280;54076;50.322;18.650;2023-01-23T20:31:56;100871.44;;;3.87
47484;BMP280;54076;50.322;18.650;2023-01-23T20:36:57;100877.08;;;4.03
47484;BMP280;54076;50.322;18.650;2023-01-23T20:41:58;100874.20;;;3.76
47484;BMP280;54076;50.322;18.650;2023-01-23T20:47:00;100876.54;;;3.99
47484;BMP280;54076;50.322;18.650;2023-01-23T20:52:01;100872.86;;;3.59
47484;BMP280;54076;50.322;18.650;2023-01-23T20:57:20;100872.87;;;3.70
47484;BMP280;54076;50.322;18.650;2023-01-23T21:02:22;100878.06;;;3.80
47484;BMP280;54076;50.322;18.650;2023-01-23T21:07:23;100873.60;;;3.69
47484;BMP280;54076;50.322;18.650;2023-01-23T21:12:26;100880.95;;;3.89
47484;BMP280;54076;50.322;18.650;2023-01-23T21:17:27;100873.94;;;3.84
47484;BMP280;54076;50.322;18.650;2023-01-23T21:22:28;100876.32;;;3.63
47484;BMP280;54076;50.322;18.650;2023-01-23T21:27:29;100878.82;;;3.88
47484;BMP280;54076;50.322;18.650;2023-01-23T21:32:31;100875.41;;;3.80
47484;BMP280;54076;50.322;18.650;2023-01-23T21:37:32;100876.66;;;3.82
47484;BMP280;54076;50.322;18.650;2023-01-23T21:42:33;100878.43;;;4.00
47484;BMP280;54076;50.322;18.650;2023-01-23T21:47:35;100883.36;;;3.96
47484;BMP280;54076;50.322;18.650;2023-01-23T21:52:36;100879.04;;;3.87
47484;BMP280;54076;50.322;18.650;2023-01-23T21:57:37;100881.73;;;3.85
47484;BMP280;54076;50.322;18.650;2023-01-23T22:02:38;100886.48;;;4.02
47484;BMP280;54076;50.322;18.650;2023-01-23T22:07:40;100891.05;;;3.79
47484;BMP280;54076;50.322;18.650;2023-01-23T22:12:41;100893.79;;;3.99
47484;BMP280;54076;50.322;18.650;2023-01-23T22:17:42;100895.45;;;3.74
47484;BMP280;54076;50.322;18.650;2023-01-23T22:22:45;100900.55;;;3.86
47484;BMP280;54076;50.322;18.650;2023-01-23T22:27:46;100893.95;;;3.83
47484;BMP280;54076;50.322;18.650;2023-01-23T22:32:47;100892.93;;;3.88
47484;BMP280;54076;50.322;18.650;2023-01-23T22:37:48;100892.66;;;3.78
47484;BMP280;54076;50.322;18.650;2023-01-23T22:42:50;100887.83;;;3.91
47484;BMP280;54076;50.322;18.650;2023-01-23T22:47:51;100888.86;;;3.91
47484;BMP280;54076;50.322;18.650;2023-01-23T22:52:52;100888.01;;;4.06
47484;BMP280;54076;50.322;18.650;2023-01-23T22:57:53;100883.44;;;3.76
47484;BMP280;54076;50.322;18.650;2023-01-23T23:02:54;100882.46;;;3.83
47484;BMP280;54076;50.322;18.650;2023-01-23T23:07:55;100890.89;;;3.88
47484;BMP280;54076;50.322;18.650;2023-01-23T23:12:57;100890.39;;;3.79
47484;BMP280;54076;50.322;18.650;2023-01-23T23:17:58;100893.09;;;3.97
47484;BMP280;54076;50.322;18.650;2023-01-23T23:22:59;100893.24;;;4.00
47484;BMP280;54076;50.322;18.650;2023-01-23T23:28:00;100897.39;;;3.70
47484;BMP280;54076;50.322;18.650;2023-01-23T23:33:01;100891.04;;;3.64
47484;BMP280;54076;50.322;18.650;2023-01-23T23:38:02;100893.77;;;3.83
47484;BMP280;54076;50.322;18.650;2023-01-23T23:43:04;100897.45;;;3.99
47484;BMP280;54076;50.322;18.650;2023-01-23T23:48:05;100890.80;;;3.75
47484;BMP280;54076;50.322;18.650;2023-01-23T23:53:06;100884.71;;;3.81
47484;BMP280;54076;50.322;18.650;2023-01-23T23:58:08;100891.02;;;4.01
